Detall de PIREP

Printer-friendly versionPDF version

[2012/03/13 10:43:00]
Flight IATA:CT1005
Pilot Number:011
Company ICAO:CAT
Aircraft Type:F28/A
PAX:85
Departing Airport: EBLG
Destination Airport: EDDN
Alternate Airport:EDDM
Online: VATSIM
Route:OLNO UZ933 SOPOK UY863 ETENO Y863 RUDUS UL984 BOMBI/N0400F240 Z723 KOMIB T193 ERTES
Flight Level:F260
No Slew and time accel
No pause
Crash detect
Detect pilot in Cockpit between each 30 and 45 minutes
10:43 Zero fuel Weight: 59658 Lbs, Fuel Weight: 10952 Lbs
10:43 VATSIM:EBLG 131020Z 03006KT 8000 FEW006 BKN020 08/05 Q1034 NOSIG
10:43 VATSIM:EDDN 131020Z 32004KT 9999 BKN025 08/04 Q1031 NOSIG
10:55 Parking Brakes off
11:05 Take-off
11:05 Take off Weight: 70003 Lbs
11:05 Wind: 033º @ 006 Knots Heading: 225º
11:05 POS N50º 38´ 12´´ E005º 26´ 34´´
11:05 Gear Up: 158 Knots
11:05 Flaps:2 at 158 Knots
11:06 Flaps:1 at 198 Knots
11:06 Flaps:0 at 226 Knots
11:20 Wind:020º@020 Knots Heading: 087º Ground Speed: 297 Knots Altitude 17864 ft
11:27 TOC
11:27 Fuel Weight: 8002 Lb
11:35 Wind:030º@026 Knots Heading: 085º Ground Speed: 413 Knots Altitude 26587 ft
11:41 TOD
11:41 Fuel Weight: 6819 Lb
11:50 Wind:331º@016 Knots Heading: 136º Ground Speed: 346 Knots Altitude 11584 ft
11:54 Flaps:1 at 231 Knots
11:55 Flaps:2 at 214 Knots
11:56 Flaps:3 at 195 Knots
11:58 Flaps:4 at 182 Knots
11:58 Gear Down: 182 Knots
12:01 Flaps:5 at 149 Knots
12:05 Wind:337º@006 Knots Heading: 280º Ground Speed: 113 Knots Altitude 1194 ft
12:05 TouchDown:Rate -221 ft/min Speed: 100 Knots
12:05 VATSIM:EDDN 131120Z VRB03KT 9999 BKN026 08/03 Q1031 NOSIG
12:05 Land
12:05 Wind:337º@006 Knots
12:05 Heading: 280º
12:05 Flight Duration: 01:00
12:05 Landing Weight: 65122 Lbs
12:05 POS N49º 29´ 55´´ E011º 04´ 44´´
12:07 Parking brakes on
12:07 Block to Block Duration: 01:12
12:07 Final Fuel: 5374 Lbls
12:07 Spent Fuel: 5577 Lbls
12:07 Flight Length: 119 NM
12:07 TOD Land Length: 33 NM

Exportar CSV

Powered by Drupal - Modified by Danger4k